Time;durP1;ratioP1;P1;durP2;ratioP2;P2;SDS_P1;SDS_P2;PMS_P1;PMS_P2;Temp;Humidity;BMP_temperature;BMP_pressure;BME280_temperature;BME280_humidity;BME280_pressure;Samples;Min_cycle;Max_cycle;Signal;HPM_P1;HPM_P2
2023/02/06 00:03:36;;;;;;;4.75;3.10;;;;;;;;;;10326568;28;20037;-58
2023/02/06 00:08:36;;;;;;;3.30;2.97;;;;;;;;;;10326545;28;20038;-58
2023/02/06 00:13:37;;;;;;;6.45;3.45;;;;;;;;;;10320578;28;20489;-59
2023/02/06 00:18:38;;;;;;;3.67;3.03;;;;;;;;;;10326355;28;20030;-58
2023/02/06 00:23:38;;;;;;;6.35;3.45;;;;;;;;;;10326073;28;20030;-57
2023/02/06 00:28:39;;;;;;;5.47;3.60;;;;;;;;;;10326125;28;20038;-58
2023/02/06 00:33:40;;;;;;;4.03;3.00;;;;;;;;;;10325985;28;20037;-57
2023/02/06 00:38:41;;;;;;;4.85;3.22;;;;;;;;;;10325946;28;20046;-58
2023/02/06 00:43:42;;;;;;;5.05;3.10;;;;;;;;;;10325852;28;20027;-58
2023/02/06 00:48:42;;;;;;;6.40;3.22;;;;;;;;;;10325304;28;20463;-57
2023/02/06 00:53:43;;;;;;;5.60;3.65;;;;;;;;;;10325849;28;20058;-57
2023/02/06 00:58:44;;;;;;;4.57;3.03;;;;;;;;;;10325764;28;20022;-58
2023/02/06 01:03:44;;;;;;;4.55;3.65;;;;;;;;;;10325502;28;20022;-57
2023/02/06 01:08:46;;;;;;;4.68;3.05;;;;;;;;;;10333597;28;20081;-58
2023/02/06 01:13:47;;;;;;;4.78;2.88;;;;;;;;;;10325765;28;20026;-57
2023/02/06 01:18:48;;;;;;;6.30;3.30;;;;;;;;;;10328666;28;20105;-58
2023/02/06 01:23:51;;;;;;;5.22;3.20;;;;;;;;;;10332925;28;20062;-58
2023/02/06 01:28:53;;;;;;;6.60;3.45;;;;;;;;;;10332528;28;20034;-58
2023/02/06 01:33:56;;;;;;;4.22;3.20;;;;;;;;;;10332384;28;20304;-58
2023/02/06 01:38:57;;;;;;;4.82;3.08;;;;;;;;;;10332041;28;20038;-58
2023/02/06 01:44:18;;;;;;;6.30;3.38;;;;;;;;;;10332226;28;20026;-58
2023/02/06 01:49:24;;;;;;;4.03;3.15;;;;;;;;;;10331578;28;20205;-58
2023/02/06 01:54:25;;;;;;;3.53;2.85;;;;;;;;;;10331323;28;20410;-58
2023/02/06 01:59:26;;;;;;;5.25;3.33;;;;;;;;;;10331464;28;20081;-58
2023/02/06 02:04:31;;;;;;;4.03;3.20;;;;;;;;;;10331360;28;20509;-58
2023/02/06 02:09:32;;;;;;;4.50;3.25;;;;;;;;;;10309804;28;20022;-58
2023/02/06 02:14:34;;;;;;;3.47;2.85;;;;;;;;;;10326373;28;20022;-59
2023/02/06 02:20:03;;;;;;;5.03;3.10;;;;;;;;;;10313008;28;20315;-58
2023/02/06 02:25:15;;;;;;;5.20;3.10;;;;;;;;;;10330655;28;20479;-58
2023/02/06 02:30:56;;;;;;;4.35;2.85;;;;;;;;;;10330327;28;20027;-58
2023/02/06 02:36:21;;;;;;;3.80;3.05;;;;;;;;;;10324919;28;20486;-58
2023/02/06 02:41:34;;;;;;;5.63;2.92;;;;;;;;;;10329803;28;20015;-58
2023/02/06 02:46:42;;;;;;;5.40;2.92;;;;;;;;;;10322191;28;20501;-58
2023/02/06 02:51:46;;;;;;;4.78;3.00;;;;;;;;;;10312878;28;20027;-58
2023/02/06 02:56:46;;;;;;;5.60;3.17;;;;;;;;;;10312566;28;20084;-58
2023/02/06 03:01:51;;;;;;;3.55;3.08;;;;;;;;;;10329749;28;20505;-58
2023/02/06 03:07:42;;;;;;;4.13;3.10;;;;;;;;;;10311329;28;20428;-58
2023/02/06 03:12:55;;;;;;;3.58;2.85;;;;;;;;;;10243234;28;20046;-59
2023/02/06 03:18:11;;;;;;;7.00;2.97;;;;;;;;;;10328630;28;20030;-59
2023/02/06 03:23:16;;;;;;;4.90;2.95;;;;;;;;;;10311241;28;20258;-59
2023/02/06 03:28:27;;;;;;;3.75;3.08;;;;;;;;;;10310337;28;20038;-59
2023/02/06 03:33:35;;;;;;;4.60;2.67;;;;;;;;;;10310934;28;20062;-59
2023/02/06 03:38:35;;;;;;;2.97;2.67;;;;;;;;;;10327601;28;20050;-59
2023/02/06 03:43:37;;;;;;;4.80;3.05;;;;;;;;;;10328218;28;20486;-59
2023/02/06 03:48:48;;;;;;;4.25;2.83;;;;;;;;;;10327802;28;20466;-59
2023/02/06 03:53:51;;;;;;;2.92;2.50;;;;;;;;;;10316788;28;20042;-59
2023/02/06 03:58:52;;;;;;;2.35;2.17;;;;;;;;;;10318482;28;20065;-59
2023/02/06 04:03:52;;;;;;;3.35;2.70;;;;;;;;;;10317825;28;20442;-59
2023/02/06 04:08:53;;;;;;;3.42;2.63;;;;;;;;;;10324151;28;20112;-59
2023/02/06 04:13:54;;;;;;;4.00;2.17;;;;;;;;;;10319734;28;20027;-59
2023/02/06 04:18:54;;;;;;;3.53;2.60;;;;;;;;;;10326937;28;20018;-59
2023/02/06 04:23:55;;;;;;;3.65;2.63;;;;;;;;;;10326540;28;20321;-58
2023/02/06 04:28:55;;;;;;;4.35;2.70;;;;;;;;;;10314626;28;20026;-58
2023/02/06 04:33:56;;;;;;;3.65;2.63;;;;;;;;;;10326220;28;20112;-58
2023/02/06 04:38:57;;;;;;;3.25;2.53;;;;;;;;;;10325662;28;20057;-57
2023/02/06 04:43:57;;;;;;;3.55;2.67;;;;;;;;;;10325847;28;20110;-58
2023/02/06 04:48:58;;;;;;;3.75;2.60;;;;;;;;;;10325867;28;20031;-57
2023/02/06 04:53:58;;;;;;;3.10;2.50;;;;;;;;;;10325824;28;20591;-58
2023/02/06 04:58:59;;;;;;;2.65;2.42;;;;;;;;;;10325611;28;20018;-58
2023/02/06 05:03:59;;;;;;;3.55;2.30;;;;;;;;;;10313749;28;20418;-58
2023/02/06 05:09:02;;;;;;;2.67;2.40;;;;;;;;;;10325365;28;20034;-58
2023/02/06 05:14:03;;;;;;;4.20;2.80;;;;;;;;;;10325568;28;20569;-58
2023/02/06 05:19:04;;;;;;;3.58;2.53;;;;;;;;;;10325034;28;20101;-57
2023/02/06 05:24:04;;;;;;;2.53;2.20;;;;;;;;;;10325361;28;20038;-57
2023/02/06 05:29:05;;;;;;;2.75;2.40;;;;;;;;;;10325122;28;20469;-58
2023/02/06 05:34:05;;;;;;;2.17;1.98;;;;;;;;;;10325170;28;20018;-57
2023/02/06 05:39:06;;;;;;;3.53;2.40;;;;;;;;;;10324747;28;20502;-58
2023/02/06 05:44:09;;;;;;;3.58;2.60;;;;;;;;;;10324719;28;20045;-58
2023/02/06 05:49:10;;;;;;;3.30;2.42;;;;;;;;;;10325164;28;20156;-58
2023/02/06 05:54:10;;;;;;;2.83;2.30;;;;;;;;;;10329524;28;20023;-59
2023/02/06 05:59:11;;;;;;;2.80;2.10;;;;;;;;;;10331231;28;20045;-59
2023/02/06 06:04:12;;;;;;;2.55;2.30;;;;;;;;;;10372071;23;20051;-60
2023/02/06 06:09:12;;;;;;;2.78;2.45;;;;;;;;;;10391785;28;20096;-61
2023/02/06 06:14:13;;;;;;;2.50;2.30;;;;;;;;;;10393209;28;20037;-62
2023/02/06 06:19:13;;;;;;;2.30;2.05;;;;;;;;;;10410428;28;20029;-61
2023/02/06 06:24:14;;;;;;;2.80;2.33;;;;;;;;;;10392787;28;20083;-63
2023/02/06 06:29:15;;;;;;;5.82;2.70;;;;;;;;;;10407034;28;20129;-64
2023/02/06 06:34:15;;;;;;;5.53;2.63;;;;;;;;;;10400460;28;20025;-60
2023/02/06 06:39:16;;;;;;;6.50;2.42;;;;;;;;;;10406166;28;20040;-63
2023/02/06 06:44:16;;;;;;;6.03;2.65;;;;;;;;;;10408764;28;20030;-59
2023/02/06 06:49:17;;;;;;;4.18;2.40;;;;;;;;;;10411504;28;20037;-61
2023/02/06 06:54:18;;;;;;;7.03;2.70;;;;;;;;;;10400156;28;20104;-59
2023/02/06 06:59:18;;;;;;;10.43;3.33;;;;;;;;;;10407283;28;20029;-57
2023/02/06 07:04:20;;;;;;;7.50;3.35;;;;;;;;;;10401605;28;20037;-60
2023/02/06 07:09:21;;;;;;;9.77;3.30;;;;;;;;;;10403656;28;20069;-62
2023/02/06 07:14:21;;;;;;;5.13;3.28;;;;;;;;;;10408658;28;20561;-62
2023/02/06 07:19:22;;;;;;;9.02;3.53;;;;;;;;;;10409643;28;20034;-59
2023/02/06 07:24:22;;;;;;;5.13;2.97;;;;;;;;;;10409377;28;20056;-59
2023/02/06 07:29:24;;;;;;;6.82;2.90;;;;;;;;;;10409637;28;20028;-60
2023/02/06 07:34:24;;;;;;;5.97;3.03;;;;;;;;;;10409562;28;20028;-59
2023/02/06 07:39:25;;;;;;;5.35;2.88;;;;;;;;;;10409039;28;20036;-58
2023/02/06 07:44:26;;;;;;;7.80;3.20;;;;;;;;;;10409151;28;20053;-58
2023/02/06 07:49:26;;;;;;;6.57;2.80;;;;;;;;;;10408712;28;20026;-57
2023/02/06 07:54:27;;;;;;;6.25;2.90;;;;;;;;;;10408651;28;20026;-58
2023/02/06 07:59:27;;;;;;;8.63;3.00;;;;;;;;;;10405406;28;20473;-58
2023/02/06 08:04:33;;;;;;;5.63;2.58;;;;;;;;;;10396177;28;20509;-58
2023/02/06 08:09:34;;;;;;;3.05;2.67;;;;;;;;;;10408210;28;20029;-58
2023/02/06 08:14:35;;;;;;;3.60;2.53;;;;;;;;;;10406149;28;20045;-58
2023/02/06 08:19:35;;;;;;;3.65;2.50;;;;;;;;;;10405850;28;20029;-58
2023/02/06 08:24:36;;;;;;;7.10;2.53;;;;;;;;;;10406067;28;20469;-58
2023/02/06 08:29:41;;;;;;;5.28;2.83;;;;;;;;;;10405871;28;20508;-58
2023/02/06 08:34:41;;;;;;;6.30;2.78;;;;;;;;;;10406807;28;20465;-58
2023/02/06 08:39:42;;;;;;;4.72;2.70;;;;;;;;;;10407384;28;20022;-58
2023/02/06 08:44:42;;;;;;;5.90;2.65;;;;;;;;;;10407140;28;20024;-58
2023/02/06 08:49:43;;;;;;;5.13;2.25;;;;;;;;;;10407674;28;20064;-58
2023/02/06 08:54:43;;;;;;;5.28;2.78;;;;;;;;;;10407227;28;20400;-58
2023/02/06 08:59:44;;;;;;;12.25;2.85;;;;;;;;;;10406785;28;20527;-58
2023/02/06 09:04:45;;;;;;;7.75;2.70;;;;;;;;;;10394728;28;20374;-58
2023/02/06 09:09:45;;;;;;;5.22;2.35;;;;;;;;;;10406700;28;20037;-58
2023/02/06 09:14:46;;;;;;;9.90;2.35;;;;;;;;;;10396937;28;20025;-58
2023/02/06 09:19:46;;;;;;;4.07;2.63;;;;;;;;;;10406623;28;20068;-58
2023/02/06 09:24:47;;;;;;;3.25;2.50;;;;;;;;;;10406469;28;20032;-57
2023/02/06 09:29:48;;;;;;;4.82;2.40;;;;;;;;;;10412726;28;20044;-58
2023/02/06 09:34:48;;;;;;;5.75;2.53;;;;;;;;;;10414122;28;20017;-58
2023/02/06 09:39:49;;;;;;;3.53;2.55;;;;;;;;;;10413996;28;20025;-58
2023/02/06 09:45:05;;;;;;;3.45;2.45;;;;;;;;;;10413918;28;20044;-57
2023/02/06 09:50:26;;;;;;;4.90;2.45;;;;;;;;;;10411839;28;20041;-58
2023/02/06 09:55:43;;;;;;;3.28;2.20;;;;;;;;;;10412101;28;20027;-57
2023/02/06 10:01:28;;;;;;;2.92;2.45;;;;;;;;;;10405622;28;20485;-58
2023/02/06 10:06:57;;;;;;;5.70;2.20;;;;;;;;;;10379976;28;20045;-58
2023/02/06 10:12:12;;;;;;;5.90;2.40;;;;;;;;;;10411431;28;20503;-58
2023/02/06 10:17:20;;;;;;;3.38;2.40;;;;;;;;;;10412390;28;20036;-58
2023/02/06 10:22:49;;;;;;;;;;;;;;;;;;10412587;28;20405;-57
2023/02/06 10:27:57;;;;;;;3.75;2.35;;;;;;;;;;10410874;28;19921;-57
2023/02/06 10:33:11;;;;;;;4.93;2.47;;;;;;;;;;10412187;28;20028;-58
2023/02/06 10:38:33;;;;;;;4.97;2.75;;;;;;;;;;10421019;23;20066;-63
2023/02/06 10:44:00;;;;;;;2.97;2.10;;;;;;;;;;10411668;28;20606;-63
2023/02/06 10:49:34;;;;;;;3.30;2.13;;;;;;;;;;10370200;28;20469;-63
2023/02/06 10:54:44;;;;;;;2.45;2.25;;;;;;;;;;10366812;28;20029;-63
2023/02/06 10:59:50;;;;;;;4.47;2.30;;;;;;;;;;10368311;28;20034;-63
2023/02/06 11:05:07;;;;;;;3.35;2.30;;;;;;;;;;10361045;28;20033;-63
2023/02/06 11:10:16;;;;;;;4.03;2.75;;;;;;;;;;10367884;28;20041;-63
2023/02/06 11:15:32;;;;;;;5.53;1.88;;;;;;;;;;10368985;28;20022;-63
2023/02/06 11:20:37;;;;;;;3.75;2.03;;;;;;;;;;10367492;28;20104;-64
2023/02/06 11:25:37;;;;;;;3.35;2.00;;;;;;;;;;10367276;28;20084;-63
2023/02/06 11:30:41;;;;;;;2.92;2.00;;;;;;;;;;10367467;28;20537;-64
2023/02/06 11:35:57;;;;;;;3.97;2.00;;;;;;;;;;10367247;28;20022;-63
2023/02/06 11:41:16;;;;;;;2.70;2.40;;;;;;;;;;10359629;28;20142;-63
2023/02/06 11:46:26;;;;;;;3.63;2.30;;;;;;;;;;10366971;28;21372;-64
2023/02/06 11:51:54;;;;;;;4.07;2.13;;;;;;;;;;10367283;28;20038;-63
2023/02/06 11:57:17;;;;;;;3.83;2.30;;;;;;;;;;10360963;28;20022;-63
2023/02/06 12:02:36;;;;;;;2.25;2.05;;;;;;;;;;10367306;28;20493;-63
2023/02/06 12:07:59;;;;;;;2.90;2.17;;;;;;;;;;10367104;28;20021;-63
2023/02/06 12:13:18;;;;;;;4.63;2.50;;;;;;;;;;10365844;28;20511;-63
2023/02/06 12:18:34;;;;;;;3.13;2.28;;;;;;;;;;10359379;28;20095;-63
2023/02/06 12:23:54;;;;;;;5.82;2.08;;;;;;;;;;10365296;28;20088;-63
2023/02/06 12:29:23;;;;;;;2.47;2.25;;;;;;;;;;10380800;28;20057;-63
2023/02/06 12:34:44;;;;;;;2.60;2.00;;;;;;;;;;10358620;28;20080;-64
2023/02/06 12:39:45;;;;;;;2.55;1.92;;;;;;;;;;10364964;28;20409;-64
2023/02/06 12:44:56;;;;;;;3.22;2.20;;;;;;;;;;10361274;28;20030;-64
2023/02/06 12:50:15;;;;;;;3.55;2.35;;;;;;;;;;10363141;28;20061;-63
2023/02/06 12:55:33;;;;;;;3.13;2.17;;;;;;;;;;10375973;28;20108;-64
2023/02/06 13:01:00;;;;;;;2.90;2.08;;;;;;;;;;10366942;28;20109;-63
2023/02/06 13:06:23;;;;;;;2.08;1.88;;;;;;;;;;10371170;28;20073;-63
2023/02/06 13:11:34;;;;;;;3.95;2.10;;;;;;;;;;10372501;28;20041;-63
2023/02/06 13:16:48;;;;;;;2.33;1.83;;;;;;;;;;10372162;28;20397;-64
2023/02/06 13:22:13;;;;;;;4.15;1.92;;;;;;;;;;10372882;28;20629;-63
2023/02/06 13:27:22;;;;;;;2.92;2.25;;;;;;;;;;10351706;28;20042;-63
2023/02/06 13:32:29;;;;;;;2.53;1.95;;;;;;;;;;10368426;28;20429;-63
2023/02/06 13:37:43;;;;;;;2.47;1.90;;;;;;;;;;10371879;28;20355;-63
2023/02/06 13:42:59;;;;;;;3.55;1.95;;;;;;;;;;10366898;28;20112;-63
2023/02/06 13:48:05;;;;;;;2.30;2.10;;;;;;;;;;10372760;28;20244;-64
2023/02/06 13:53:46;;;;;;;2.25;1.92;;;;;;;;;;10371182;28;20088;-64
2023/02/06 13:58:53;;;;;;;3.97;2.40;;;;;;;;;;10343009;28;20049;-63
2023/02/06 14:03:55;;;;;;;2.90;2.10;;;;;;;;;;10368428;28;20042;-63
2023/02/06 14:09:29;;;;;;;2.72;2.22;;;;;;;;;;10368126;28;20053;-63
2023/02/06 14:15:07;;;;;;;3.53;2.13;;;;;;;;;;10369673;28;20042;-63
2023/02/06 14:20:32;;;;;;;4.00;1.98;;;;;;;;;;10370754;28;20028;-63
2023/02/06 14:26:02;;;;;;;3.20;2.30;;;;;;;;;;10371721;28;20121;-64
2023/02/06 14:31:15;;;;;;;4.65;2.30;;;;;;;;;;10371057;28;20037;-63
2023/02/06 14:36:31;;;;;;;8.57;2.35;;;;;;;;;;10380837;28;20096;-63
2023/02/06 14:41:33;;;;;;;4.90;2.42;;;;;;;;;;10371351;28;20268;-63
2023/02/06 14:46:34;;;;;;;3.25;2.38;;;;;;;;;;10369257;28;20083;-63
2023/02/06 14:51:38;;;;;;;4.97;2.63;;;;;;;;;;10366329;28;20363;-63
2023/02/06 14:56:38;;;;;;;4.68;2.53;;;;;;;;;;10368981;28;20045;-63
2023/02/06 15:01:41;;;;;;;5.03;2.55;;;;;;;;;;10366063;28;20029;-63
2023/02/06 15:06:53;;;;;;;3.67;2.08;;;;;;;;;;10368383;28;20025;-63
2023/02/06 15:12:02;;;;;;;4.05;2.45;;;;;;;;;;10368387;28;20041;-63
2023/02/06 15:17:03;;;;;;;;;;;;;;;;;;10367334;28;20268;-63
2023/02/06 15:22:21;;;;;;;9.38;2.38;;;;;;;;;;10368967;28;20534;-63
2023/02/06 15:27:33;;;;;;;3.35;2.17;;;;;;;;;;10366968;28;20031;-63
2023/02/06 15:32:38;;;;;;;5.35;2.55;;;;;;;;;;10365569;28;20429;-63
2023/02/06 15:37:39;;;;;;;2.60;2.10;;;;;;;;;;10366395;28;20125;-63
2023/02/06 15:42:40;;;;;;;3.50;2.20;;;;;;;;;;10368427;28;20048;-63
2023/02/06 15:47:43;;;;;;;3.50;2.25;;;;;;;;;;10368408;28;20569;-63
2023/02/06 15:52:46;;;;;;;3.75;2.20;;;;;;;;;;10364320;28;20498;-63
2023/02/06 15:57:47;;;;;;;2.28;2.08;;;;;;;;;;10367753;28;20184;-63
2023/02/06 16:02:49;;;;;;;3.70;2.35;;;;;;;;;;10365903;28;20030;-63
2023/02/06 16:07:50;;;;;;;2.03;1.90;;;;;;;;;;10365098;28;20029;-63
2023/02/06 16:12:51;;;;;;;4.47;2.05;;;;;;;;;;10367447;28;20038;-63
2023/02/06 16:17:53;;;;;;;3.88;2.15;;;;;;;;;;10373327;28;20033;-63
2023/02/06 16:23:18;;;;;;;2.20;2.00;;;;;;;;;;10369309;28;20022;-63
2023/02/06 16:28:23;;;;;;;2.35;1.92;;;;;;;;;;10368177;28;20071;-63
2023/02/06 16:34:02;;;;;;;3.83;2.08;;;;;;;;;;10366883;28;20033;-63
2023/02/06 16:39:02;;;;;;;3.38;2.25;;;;;;;;;;10263336;28;20522;-63
2023/02/06 16:44:11;;;;;;;4.85;2.20;;;;;;;;;;10280573;28;20034;-63
2023/02/06 16:49:21;;;;;;;2.58;1.80;;;;;;;;;;10255603;28;20035;-63
2023/02/06 16:54:29;;;;;;;8.30;2.35;;;;;;;;;;10268409;28;20391;-65
2023/02/06 16:59:30;;;;;;;2.67;2.22;;;;;;;;;;10272277;28;20085;-65
2023/02/06 17:04:31;;;;;;;4.47;2.35;;;;;;;;;;10278587;28;20038;-63
2023/02/06 17:09:31;;;;;;;8.98;2.30;;;;;;;;;;10273376;28;20577;-64
2023/02/06 17:14:32;;;;;;;5.65;2.30;;;;;;;;;;10364571;28;20485;-64
2023/02/06 17:19:32;;;;;;;5.88;2.75;;;;;;;;;;10365761;28;20022;-63
2023/02/06 17:24:34;;;;;;;6.10;2.58;;;;;;;;;;10368644;28;20485;-66
2023/02/06 17:29:35;;;;;;;3.53;2.40;;;;;;;;;;10365989;28;20042;-66
2023/02/06 17:34:36;;;;;;;6.97;2.97;;;;;;;;;;10357845;28;20026;-65
2023/02/06 17:39:36;;;;;;;4.00;2.35;;;;;;;;;;10360536;28;20134;-66
2023/02/06 17:44:37;;;;;;;2.67;2.13;;;;;;;;;;10361726;28;20021;-66
2023/02/06 17:49:38;;;;;;;7.28;2.65;;;;;;;;;;10368882;28;20068;-66
2023/02/06 17:54:38;;;;;;;3.97;2.67;;;;;;;;;;10368497;28;20026;-65
2023/02/06 17:59:39;;;;;;;7.07;3.15;;;;;;;;;;10370688;28;20084;-66
2023/02/06 18:04:40;;;;;;;5.00;2.92;;;;;;;;;;10368016;28;20040;-65
2023/02/06 18:09:41;;;;;;;4.93;2.95;;;;;;;;;;10371052;28;20036;-65
2023/02/06 18:14:42;;;;;;;3.88;2.97;;;;;;;;;;10369361;28;20184;-65
2023/02/06 18:19:45;;;;;;;5.32;3.65;;;;;;;;;;10371515;28;20026;-66
2023/02/06 18:24:46;;;;;;;4.40;2.85;;;;;;;;;;10369897;28;20022;-65
2023/02/06 18:29:51;;;;;;;4.88;3.35;;;;;;;;;;10367177;28;20481;-66
2023/02/06 18:34:52;;;;;;;4.00;3.15;;;;;;;;;;10370683;28;20041;-66
2023/02/06 18:39:54;;;;;;;5.82;3.35;;;;;;;;;;10366990;28;20053;-66
2023/02/06 18:44:54;;;;;;;5.95;3.40;;;;;;;;;;10372512;28;20393;-66
2023/02/06 18:49:55;;;;;;;4.43;3.25;;;;;;;;;;10370273;28;20022;-66
2023/02/06 18:54:55;;;;;;;5.30;3.63;;;;;;;;;;10368114;28;20084;-66
2023/02/06 18:59:57;;;;;;;6.43;3.33;;;;;;;;;;10368990;28;20029;-66
2023/02/06 19:04:58;;;;;;;5.18;3.70;;;;;;;;;;10365020;28;20022;-66
2023/02/06 19:10:01;;;;;;;5.93;3.75;;;;;;;;;;10365674;28;20034;-66
2023/02/06 19:15:03;;;;;;;6.70;3.97;;;;;;;;;;10358303;28;20481;-66
2023/02/06 19:20:05;;;;;;;8.77;3.63;;;;;;;;;;10368700;28;20568;-66
2023/02/06 19:25:09;;;;;;;5.55;3.38;;;;;;;;;;10359621;28;20022;-66
2023/02/06 19:30:11;;;;;;;6.65;3.67;;;;;;;;;;10356033;28;20121;-66
2023/02/06 19:35:13;;;;;;;5.60;3.72;;;;;;;;;;10360323;28;20120;-66
2023/02/06 19:40:13;;;;;;;11.45;3.53;;;;;;;;;;10364771;28;20052;-66
2023/02/06 19:45:14;;;;;;;6.40;3.63;;;;;;;;;;10367369;28;20485;-66
2023/02/06 19:50:15;;;;;;;5.10;3.47;;;;;;;;;;10365388;28;20381;-66
2023/02/06 19:55:15;;;;;;;5.68;3.30;;;;;;;;;;10360569;28;20067;-66
2023/02/06 20:00:16;;;;;;;4.50;3.67;;;;;;;;;;10358709;28;20117;-66
2023/02/06 20:05:24;;;;;;;4.95;3.42;;;;;;;;;;10359345;28;20116;-66
2023/02/06 20:10:25;;;;;;;5.00;3.07;;;;;;;;;;10365760;28;20382;-65
2023/02/06 20:15:27;;;;;;;4.18;3.65;;;;;;;;;;10361309;28;20033;-66
2023/02/06 20:20:28;;;;;;;5.30;3.72;;;;;;;;;;10366135;28;20065;-66
2023/02/06 20:25:29;;;;;;;4.90;3.42;;;;;;;;;;10358313;28;20129;-66
2023/02/06 20:30:30;;;;;;;5.28;4.15;;;;;;;;;;10364683;28;20037;-66
2023/02/06 20:35:32;;;;;;;5.78;3.95;;;;;;;;;;10363516;28;20395;-67
2023/02/06 20:40:33;;;;;;;6.03;3.42;;;;;;;;;;10360820;28;20029;-66
2023/02/06 20:45:34;;;;;;;4.22;3.63;;;;;;;;;;10360882;28;20109;-66
2023/02/06 20:50:34;;;;;;;4.63;3.65;;;;;;;;;;10364045;28;20029;-66
2023/02/06 20:55:43;;;;;;;5.45;3.55;;;;;;;;;;10358116;28;20026;-65
2023/02/06 21:00:43;;;;;;;5.77;3.70;;;;;;;;;;10364847;28;20032;-65
2023/02/06 21:05:55;;;;;;;4.80;3.80;;;;;;;;;;10363655;28;20022;-65
2023/02/06 21:10:55;;;;;;;4.15;3.25;;;;;;;;;;10363607;28;20030;-66
2023/02/06 21:15:57;;;;;;;6.18;3.35;;;;;;;;;;10365322;28;20390;-66
2023/02/06 21:21:08;;;;;;;6.18;4.05;;;;;;;;;;10367552;28;20030;-66
2023/02/06 21:26:11;;;;;;;4.38;3.47;;;;;;;;;;10359631;28;20481;-65
2023/02/06 21:31:20;;;;;;;5.57;3.85;;;;;;;;;;10364333;28;20034;-66
2023/02/06 21:36:21;;;;;;;6.05;4.53;;;;;;;;;;10370312;28;20050;-65
2023/02/06 21:41:22;;;;;;;4.50;3.80;;;;;;;;;;10368051;28;20036;-66
2023/02/06 21:46:23;;;;;;;7.45;4.38;;;;;;;;;;10368138;28;20022;-65
2023/02/06 21:51:24;;;;;;;6.35;4.78;;;;;;;;;;10370245;28;20038;-67
2023/02/06 21:56:27;;;;;;;7.47;4.68;;;;;;;;;;10372156;28;20018;-69
2023/02/06 22:01:31;;;;;;;9.18;5.15;;;;;;;;;;10369458;28;20030;-66
2023/02/06 22:06:36;;;;;;;9.07;4.60;;;;;;;;;;10367606;28;20501;-66
2023/02/06 22:11:38;;;;;;;10.30;4.82;;;;;;;;;;10365039;28;20048;-68
2023/02/06 22:16:39;;;;;;;7.75;4.30;;;;;;;;;;10370505;28;20025;-65
2023/02/06 22:21:40;;;;;;;7.30;4.47;;;;;;;;;;10361408;28;20025;-67
2023/02/06 22:26:42;;;;;;;11.38;4.70;;;;;;;;;;10369597;28;20108;-67
2023/02/06 22:31:44;;;;;;;8.13;4.80;;;;;;;;;;10366664;28;20117;-67
2023/02/06 22:36:44;;;;;;;7.80;4.97;;;;;;;;;;10362871;28;20034;-67
2023/02/06 22:41:45;;;;;;;9.30;4.90;;;;;;;;;;10370230;28;20037;-67
2023/02/06 22:46:50;;;;;;;8.18;4.47;;;;;;;;;;10364711;28;20022;-67
2023/02/06 22:51:51;;;;;;;7.13;4.50;;;;;;;;;;10369919;28;20088;-67
2023/02/06 22:56:51;;;;;;;9.65;4.72;;;;;;;;;;10369785;28;20029;-67
2023/02/06 23:01:57;;;;;;;7.18;4.13;;;;;;;;;;10367757;28;20400;-67
2023/02/06 23:06:57;;;;;;;6.53;4.97;;;;;;;;;;10369600;28;20021;-67
2023/02/06 23:12:00;;;;;;;8.43;4.65;;;;;;;;;;10369546;28;20470;-67
2023/02/06 23:17:01;;;;;;;6.32;4.50;;;;;;;;;;10367041;28;20022;-66
2023/02/06 23:22:02;;;;;;;8.10;4.97;;;;;;;;;;10359902;28;20041;-65
2023/02/06 23:27:03;;;;;;;6.63;4.65;;;;;;;;;;10367246;28;20034;-65
2023/02/06 23:32:04;;;;;;;7.22;4.38;;;;;;;;;;10371056;28;20052;-64
2023/02/06 23:37:05;;;;;;;6.97;4.65;;;;;;;;;;10368600;28;20134;-65
2023/02/06 23:42:06;;;;;;;6.68;4.72;;;;;;;;;;10368865;28;20040;-65
2023/02/06 23:47:06;;;;;;;7.60;4.47;;;;;;;;;;10367234;28;20384;-65
2023/02/06 23:52:07;;;;;;;6.25;4.45;;;;;;;;;;10368200;28;20370;-66
2023/02/06 23:57:07;;;;;;;5.53;4.35;;;;;;;;;;10367828;28;20056;-66
